^^
Meteo Knjazevac Station Historical Data
Daily Summary for February 18, 2021 Units:  Metric    English   Both
Daily Weekly Monthly Yearly Custom
  High: Low: Average:
Temperature: 9.8 °C 5.3 °C 6.8 °C
Dew Point: 6.6 °C 4.6 °C 5.4 °C
Humidity: 99% 79% 91%
Wind Speed: 14.5km/h 0km/h 6km/h
Wind Gust: 27.4km/h - -
Wind- - SW
Pressure: 1028.7 hPa 1025.3 hPa -
Precipitation: 0 mm    
Historical Graphs
 
 
Tabular Data for February 18, 2021
Time Temperature Dew Point Pressure Wind Wind Speed Wind Gust Humidity Rainfall Rate (Hourly) solar Conditions
00:00 5.5 °C 5.2 °C 1025.3 hPa North 1.6 km/h 4.8 km/h 98% 0 mm 0 W/m2
00:30 5.5 °C 5.2 °C 1025.3 hPa NNE 1.6 km/h 3.2 km/h 98% 0 mm 0 W/m2
00:40 5.5 °C 5.2 °C 1025.3 hPa North 1.6 km/h 4.8 km/h 98% 0 mm 0 W/m2
00:50 5.5 °C 5.2 °C 1025.3 hPa North 3.2 km/h 4.8 km/h 98% 0 mm 0 W/m2
01:00 5.5 °C 5.2 °C 1025.3 hPa North 1.6 km/h 4.8 km/h 98% 0 mm 0 W/m2
01:10 5.5 °C 5.2 °C 1025.3 hPa NNE 3.2 km/h 4.8 km/h 98% 0 mm 0 W/m2
01:20 5.5 °C 5.2 °C 1025.3 hPa Calm   3.2 km/h 98% 0 mm 0 W/m2
01:30 5.5 °C 5.2 °C 1025.3 hPa Calm   3.2 km/h 98% 0 mm 0 W/m2
01:40 5.5 °C 5.2 °C 1025.3 hPa Calm   3.2 km/h 98% 0 mm 0 W/m2
01:50 5.5 °C 5.2 °C 1025.3 hPa North 1.6 km/h 3.2 km/h 98% 0 mm 0 W/m2
02:00 5.5 °C 5.2 °C 1025.3 hPa North 1.6 km/h 3.2 km/h 98% 0 mm 0 W/m2
02:10 5.5 °C 5.2 °C 1025.3 hPa Calm   3.2 km/h 98% 0 mm 0 W/m2
02:20 5.4 °C 5.1 °C 1025.3 hPa Calm   3.2 km/h 98% 0 mm 0 W/m2
02:30 5.5 °C 5.2 °C 1025.3 hPa Calm   1.6 km/h 98% 0 mm 0 W/m2
02:40 5.4 °C 5.1 °C 1025.3 hPa NNW 1.6 km/h 3.2 km/h 98% 0 mm 0 W/m2
02:50 5.4 °C 5.1 °C 1025.6 hPa Calm   3.2 km/h 98% 0 mm 0 W/m2
03:00 5.4 °C 5.1 °C 1025.6 hPa Calm   1.6 km/h 98% 0 mm 0 W/m2
03:10 5.4 °C 5.1 °C 1025.6 hPa NNW 1.6 km/h 3.2 km/h 98% 0 mm 0 W/m2
03:20 5.4 °C 5.1 °C 1025.6 hPa Calm   3.2 km/h 98% 0 mm 0 W/m2
03:30 5.4 °C 5.1 °C 1025.6 hPa Calm   3.2 km/h 98% 0 mm 0 W/m2
03:40 5.4 °C 5.1 °C 1025.6 hPa NNE 1.6 km/h 3.2 km/h 98% 0 mm 0 W/m2
03:50 5.4 °C 5.1 °C 1025.6 hPa Calm   3.2 km/h 98% 0 mm 0 W/m2
04:00 5.4 °C 5.1 °C 1025.6 hPa Calm   1.6 km/h 98% 0 mm 0 W/m2
04:10 5.4 °C 5.1 °C 1025.6 hPa Calm   3.2 km/h 98% 0 mm 0 W/m2
04:20 5.4 °C 5.1 °C 1025.6 hPa Calm   1.6 km/h 98% 0 mm 0 W/m2
04:30 5.4 °C 5.1 °C 1025.6 hPa Calm     98% 0 mm 0 W/m2
04:40 5.4 °C 5.1 °C 1025.6 hPa Calm   3.2 km/h 98% 0 mm 0 W/m2
04:50 5.4 °C 5.1 °C 1025.6 hPa Calm   4.8 km/h 98% 0 mm 0 W/m2
05:00 5.4 °C 5.1 °C 1025.6 hPa Calm   3.2 km/h 98% 0 mm 0 W/m2
05:10 5.5 °C 5.3 °C 1025.6 hPa ENE 1.6 km/h 4.8 km/h 99% 0 mm 0 W/m2
05:30 5.4 °C 5.3 °C 1025.6 hPa WNW 3.2 km/h 4.8 km/h 99% 0 mm 0 W/m2
05:40 5.4 °C 5.3 °C 1025.6 hPa Calm   3.2 km/h 99% 0 mm 0 W/m2
05:50 5.4 °C 5.3 °C 1025.6 hPa Calm   3.2 km/h 99% 0 mm 0 W/m2
06:00 5.4 °C 5.3 °C 1026 hPa Calm   3.2 km/h 99% 0 mm 0 W/m2
06:10 5.3 °C 5.2 °C 1026 hPa Calm   1.6 km/h 99% 0 mm 0 W/m2
06:20 5.3 °C 5.2 °C 1026 hPa Calm     99% 0 mm 0 W/m2
06:30 5.3 °C 5.2 °C 1026 hPa Calm   3.2 km/h 99% 0 mm 1 W/m2
06:40 5.4 °C 5.3 °C 1026 hPa Calm   3.2 km/h 99% 0 mm 2 W/m2
06:50 5.4 °C 5.3 °C 1026 hPa Calm   3.2 km/h 99% 0 mm 5 W/m2
07:00 5.5 °C 5.3 °C 1026 hPa North 3.2 km/h 4.8 km/h 99% 0 mm 8 W/m2
07:10 5.5 °C 5.3 °C 1026 hPa WSW 1.6 km/h 3.2 km/h 99% 0 mm 12 W/m2
07:20 5.6 °C 5.4 °C 1026.3 hPa Calm   3.2 km/h 99% 0 mm 20 W/m2
07:30 5.7 °C 5.6 °C 1026.3 hPa Calm   1.6 km/h 99% 0 mm 24 W/m2
07:40 5.8 °C 5.5 °C 1026.3 hPa Calm   1.6 km/h 98% 0 mm 28 W/m2
07:50 5.9 °C 5.6 °C 1026.6 hPa ENE 1.6 km/h 4.8 km/h 98% 0 mm 30 W/m2
08:00 6 °C 5.7 °C 1026.6 hPa Calm   4.8 km/h 98% 0 mm 32 W/m2
08:10 6.1 °C 5.8 °C 1026.6 hPa WSW 1.6 km/h 3.2 km/h 98% 0 mm 35 W/m2
08:30 6.3 °C 5.7 °C 1026.6 hPa WSW 1.6 km/h 4.8 km/h 96% 0 mm 54 W/m2
08:40 6.5 °C 5.9 °C 1026.6 hPa SW 3.2 km/h 6.4 km/h 96% 0 mm 72 W/m2
08:50 6.7 °C 5.9 °C 1026.6 hPa SW 1.6 km/h 6.4 km/h 95% 0 mm 86 W/m2
09:00 6.9 °C 6.2 °C 1027 hPa Calm   4.8 km/h 95% 0 mm 105 W/m2
09:10 7.1 °C 6.2 °C 1027 hPa South 3.2 km/h 4.8 km/h 94% 0 mm 95 W/m2
09:20 7.3 °C 6.4 °C 1027 hPa SSW 3.2 km/h 12.9 km/h 94% 0 mm 110 W/m2
09:30 7.5 °C 6.1 °C 1027 hPa West 11.3 km/h 16.1 km/h 91% 0 mm 122 W/m2
09:40 7.6 °C 6.1 °C 1027 hPa West 11.3 km/h 25.7 km/h 90% 0 mm 122 W/m2
09:50 7.8 °C 6.1 °C 1027.3 hPa West 9.7 km/h 20.9 km/h 89% 0 mm 140 W/m2
10:00 7.8 °C 6.1 °C 1027.3 hPa West 12.9 km/h 20.9 km/h 89% 0 mm 142 W/m2
10:10 8 °C 6.1 °C 1027.3 hPa WSW 9.7 km/h 17.7 km/h 88% 0 mm 140 W/m2
10:20 8.1 °C 6.2 °C 1027.3 hPa SW 9.7 km/h 14.5 km/h 88% 0 mm 166 W/m2
10:30 8.2 °C 6.3 °C 1027.3 hPa SW 9.7 km/h 16.1 km/h 88% 0 mm 170 W/m2
10:40 8.5 °C 6.3 °C 1027.3 hPa WSW 8 km/h 19.3 km/h 86% 0 mm 195 W/m2
10:50 8.6 °C 6.2 °C 1027.3 hPa West 11.3 km/h 20.9 km/h 85% 0 mm 188 W/m2
11:00 8.9 °C 6.3 °C 1027.3 hPa West 8 km/h 20.9 km/h 84% 0 mm 187 W/m2
11:10 9.3 °C 6.6 °C 1027 hPa West 9.7 km/h 22.5 km/h 83% 0 mm 338 W/m2
11:20 9.6 °C 6.3 °C 1027 hPa West 11.3 km/h 22.5 km/h 80% 0 mm 229 W/m2
11:30 9.7 °C 6.4 °C 1027 hPa West 11.3 km/h 20.9 km/h 80% 0 mm 181 W/m2
11:40 9.8 °C 6.5 °C 1027 hPa West 12.9 km/h 24.1 km/h 80% 0 mm 398 W/m2
11:50 9.8 °C 6.3 °C 1027 hPa WSW 8 km/h 22.5 km/h 79% 0 mm 97 W/m2
12:00 9.5 °C 6.2 °C 1027 hPa WSW 11.3 km/h 20.9 km/h 80% 0 mm 120 W/m2
12:10 9.5 °C 6.2 °C 1026.6 hPa West 11.3 km/h 20.9 km/h 80% 0 mm 108 W/m2
12:20 9.3 °C 6 °C 1026.6 hPa West 9.7 km/h 19.3 km/h 80% 0 mm 93 W/m2
12:30 9.2 °C 6.1 °C 1026.6 hPa West 12.9 km/h 24.1 km/h 81% 0 mm 73 W/m2
12:40 8.9 °C 6.2 °C 1026.6 hPa West 11.3 km/h 20.9 km/h 83% 0 mm 74 W/m2
12:50 8.8 °C 6.2 °C 1027 hPa West 11.3 km/h 22.5 km/h 84% 0 mm 51 W/m2
13:00 8.6 °C 6.2 °C 1027 hPa West 11.3 km/h 20.9 km/h 85% 0 mm 39 W/m2
13:10 8.4 °C 6 °C 1027 hPa WSW 8 km/h 17.7 km/h 85% 0 mm 35 W/m2
13:20 8.3 °C 6.1 °C 1027 hPa WSW 8 km/h 17.7 km/h 86% 0 mm 29 W/m2
13:30 8.1 °C 5.9 °C 1027 hPa WSW 4.8 km/h 14.5 km/h 86% 0 mm 23 W/m2
13:40 8.1 °C 6.2 °C 1027 hPa WSW 9.7 km/h 16.1 km/h 88% 0 mm 22 W/m2
13:50 8 °C 6.1 °C 1027 hPa WSW 9.7 km/h 22.5 km/h 88% 0 mm 20 W/m2
14:00 8 °C 6.1 °C 1027 hPa West 8 km/h 19.3 km/h 88% 0 mm 15 W/m2
14:10 7.9 °C 6.1 °C 1026.6 hPa West 11.3 km/h 20.9 km/h 88% 0 mm 15 W/m2
14:20 7.9 °C 5.7 °C 1027 hPa WNW 11.3 km/h 22.5 km/h 86% 0 mm 14 W/m2
14:30 7.9 °C 5.7 °C 1027 hPa WNW 11.3 km/h 25.7 km/h 86% 0 mm 13 W/m2
14:40 7.9 °C 5.7 °C 1027 hPa West 12.9 km/h 22.5 km/h 86% 0 mm 18 W/m2
14:50 7.9 °C 5.7 °C 1027 hPa West 11.3 km/h 20.9 km/h 86% 0 mm 15 W/m2
15:00 7.9 °C 5.7 °C 1027.3 hPa West 9.7 km/h 19.3 km/h 86% 0 mm 8 W/m2
15:10 7.8 °C 5.4 °C 1027.3 hPa WNW 11.3 km/h 24.1 km/h 85% 0 mm 10 W/m2
15:20 7.7 °C 5.3 °C 1027.3 hPa West 9.7 km/h 22.5 km/h 85% 0 mm 9 W/m2
15:30 7.7 °C 5.3 °C 1027 hPa West 14.5 km/h 24.1 km/h 85% 0 mm 8 W/m2
15:40 7.6 °C 5.2 °C 1027.3 hPa West 9.7 km/h 24.1 km/h 85% 0 mm 6 W/m2
15:50 7.6 °C 5.2 °C 1027.3 hPa West 11.3 km/h 20.9 km/h 85% 0 mm 2 W/m2
16:00 7.6 °C 5.4 °C 1027.7 hPa WNW 8 km/h 19.3 km/h 86% 0 mm 1 W/m2
16:10 7.4 °C 5.2 °C 1027.7 hPa WNW 11.3 km/h 22.5 km/h 86% 0 mm 0 W/m2
16:20 7.3 °C 5.1 °C 1027.7 hPa WNW 11.3 km/h 25.7 km/h 86% 0 mm 0 W/m2
16:30 7.2 °C 5 °C 1027.7 hPa West 8 km/h 19.3 km/h 86% 0 mm 0 W/m2
16:40 7 °C 4.8 °C 1027.7 hPa West 12.9 km/h 17.7 km/h 86% 0 mm 0 W/m2
16:50 7 °C 4.8 °C 1027.7 hPa West 11.3 km/h 19.3 km/h 86% 0 mm 0 W/m2
17:00 6.9 °C 4.7 °C 1027.7 hPa West 9.7 km/h 17.7 km/h 86% 0 mm 0 W/m2
17:10 6.9 °C 4.7 °C 1027.7 hPa WSW 11.3 km/h 20.9 km/h 86% 0 mm 0 W/m2
17:20 6.8 °C 4.6 °C 1028 hPa WSW 12.9 km/h 27.4 km/h 86% 0 mm 0 W/m2
17:30 6.7 °C 4.8 °C 1028 hPa West 4.8 km/h 16.1 km/h 88% 0 mm 0 W/m2
17:40 6.7 °C 4.8 °C 1028.3 hPa WSW 4.8 km/h 16.1 km/h 88% 0 mm 0 W/m2
17:50 6.7 °C 4.8 °C 1028 hPa WSW 9.7 km/h 16.1 km/h 88% 0 mm 0 W/m2
18:00 6.6 °C 4.9 °C 1028.3 hPa WSW 9.7 km/h 16.1 km/h 89% 0 mm 0 W/m2
18:10 6.5 °C 5 °C 1028.3 hPa WSW 8 km/h 16.1 km/h 90% 0 mm 0 W/m2
18:20 6.5 °C 4.9 °C 1028.3 hPa WSW 8 km/h 12.9 km/h 90% 0 mm 0 W/m2
18:30 6.4 °C 4.9 °C 1028.3 hPa WSW 11.3 km/h 16.1 km/h 90% 0 mm 0 W/m2
18:40 6.4 °C 4.9 °C 1028.3 hPa WSW 9.7 km/h 16.1 km/h 90% 0 mm 0 W/m2
18:50 6.4 °C 4.9 °C 1028.3 hPa WSW 8 km/h 17.7 km/h 90% 0 mm 0 W/m2
19:00 6.4 °C 4.9 °C 1028.3 hPa WSW 9.7 km/h 14.5 km/h 90% 0 mm 0 W/m2
19:10 6.5 °C 4.8 °C 1028.3 hPa WSW 8 km/h 12.9 km/h 89% 0 mm 0 W/m2
19:20 6.5 °C 4.8 °C 1028.3 hPa WSW 9.7 km/h 19.3 km/h 89% 0 mm 0 W/m2
19:30 6.5 °C 4.8 °C 1028.3 hPa West 4.8 km/h 16.1 km/h 89% 0 mm 0 W/m2
19:40 6.5 °C 4.8 °C 1028.3 hPa WSW 8 km/h 11.3 km/h 89% 0 mm 0 W/m2
19:50 6.5 °C 4.7 °C 1028.7 hPa WSW 8 km/h 19.3 km/h 88% 0 mm 0 W/m2
20:00 6.6 °C 4.8 °C 1028.7 hPa WSW 8 km/h 14.5 km/h 88% 0 mm 0 W/m2
20:10 6.6 °C 4.9 °C 1028.7 hPa WSW 9.7 km/h 20.9 km/h 89% 0 mm 0 W/m2
20:20 6.6 °C 4.9 °C 1028.7 hPa WSW 11.3 km/h 20.9 km/h 89% 0 mm 0 W/m2
20:30 6.6 °C 4.9 °C 1028.7 hPa WSW 9.7 km/h 17.7 km/h 89% 0 mm 0 W/m2
20:40 6.6 °C 4.9 °C 1028.7 hPa WSW 4.8 km/h 12.9 km/h 89% 0 mm 0 W/m2
20:50 6.6 °C 4.9 °C 1028.7 hPa WSW 8 km/h 14.5 km/h 89% 0 mm 0 W/m2
21:00 6.7 °C 5 °C 1028.7 hPa WSW 8 km/h 12.9 km/h 89% 0 mm 0 W/m2
21:10 6.7 °C 5 °C 1028.7 hPa WSW 4.8 km/h 11.3 km/h 89% 0 mm 0 W/m2
21:20 6.7 °C 5 °C 1028.7 hPa WSW 8 km/h 12.9 km/h 89% 0 mm 0 W/m2
21:30 6.7 °C 5 °C 1028.7 hPa WSW 4.8 km/h 14.5 km/h 89% 0 mm 0 W/m2
21:40 6.7 °C 5 °C 1028.7 hPa WSW 4.8 km/h 14.5 km/h 89% 0 mm 0 W/m2
21:50 6.7 °C 5 °C 1028.7 hPa WSW 4.8 km/h 11.3 km/h 89% 0 mm 0 W/m2
22:00 6.8 °C 4.9 °C 1028.7 hPa WSW 8 km/h 12.9 km/h 88% 0 mm 0 W/m2
22:10 6.8 °C 4.9 °C 1028.7 hPa WSW 4.8 km/h 12.9 km/h 88% 0 mm 0 W/m2
22:20 6.7 °C 5 °C 1028.7 hPa WSW 9.7 km/h 12.9 km/h 89% 0 mm 0 W/m2
22:30 6.7 °C 5 °C 1028.7 hPa WSW 4.8 km/h 14.5 km/h 89% 0 mm 0 W/m2
22:40 6.7 °C 5 °C 1028.7 hPa WSW 4.8 km/h 11.3 km/h 89% 0 mm 0 W/m2
22:50 6.7 °C 5 °C 1028.7 hPa WSW 4.8 km/h 11.3 km/h 89% 0 mm 0 W/m2
23:00 6.7 °C 4.8 °C 1028.7 hPa WSW 8 km/h 12.9 km/h 88% 0 mm 0 W/m2
23:10 6.7 °C 4.8 °C 1028.3 hPa SW 3.2 km/h 11.3 km/h 88% 0 mm 0 W/m2
23:20 6.7 °C 5 °C 1028.3 hPa WSW 8 km/h 9.7 km/h 89% 0 mm 0 W/m2
23:30 6.7 °C 5 °C 1028.3 hPa WSW 9.7 km/h 12.9 km/h 89% 0 mm 0 W/m2
23:40 6.7 °C 5 °C 1028.3 hPa WSW 4.8 km/h 12.9 km/h 89% 0 mm 0 W/m2
23:50 6.6 °C 5.1 °C 1028.3 hPa WSW 4.8 km/h 11.3 km/h 90% 0 mm 0 W/m2
Knjazevac, Serbia
Compliments of Weather Underground - 2 mb